sensor_id;sensor_type;location;lat;lon;timestamp;pressure;altitude;pressure_sealevel;temperature;humidity
51585;BME280;37669;50.312;18.670;2022-12-18T00:30:37;85235.91;;;-145.86;90.16
51585;BME280;37669;50.312;18.670;2022-12-18T00:33:04;85221.94;;;-145.86;90.58
51585;BME280;37669;50.312;18.670;2022-12-18T00:35:31;85227.91;;;-145.86;90.49
51585;BME280;37669;50.312;18.670;2022-12-18T00:37:58;85225.91;;;-145.86;90.29
51585;BME280;37669;50.312;18.670;2022-12-18T00:40:25;85235.91;;;-145.86;90.59
51585;BME280;37669;50.312;18.670;2022-12-18T00:42:52;85171.97;;;-145.86;90.52
51585;BME280;37669;50.312;18.670;2022-12-18T00:45:22;85187.97;;;-145.86;90.56
51585;BME280;37669;50.312;18.670;2022-12-18T00:47:55;85231.91;;;-145.86;90.45
51585;BME280;37669;50.312;18.670;2022-12-18T00:50:24;85231.91;;;-145.86;90.66
51585;BME280;37669;50.312;18.670;2022-12-18T00:52:51;85229.91;;;-145.86;90.78
51585;BME280;37669;50.312;18.670;2022-12-18T00:55:18;85227.91;;;-145.86;90.82
51585;BME280;37669;50.312;18.670;2022-12-18T00:57:45;85247.91;;;-145.86;90.95
51585;BME280;37669;50.312;18.670;2022-12-18T01:00:14;85215.94;;;-145.86;90.90
51585;BME280;37669;50.312;18.670;2022-12-18T01:02:42;85243.91;;;-145.86;91.04
51585;BME280;37669;50.312;18.670;2022-12-18T01:05:12;85263.88;;;-145.86;91.07
51585;BME280;37669;50.312;18.670;2022-12-18T01:07:39;85245.91;;;-145.86;91.00
51585;BME280;37669;50.312;18.670;2022-12-18T01:10:09;85243.91;;;-145.86;90.68
51585;BME280;37669;50.312;18.670;2022-12-18T01:12:38;85253.91;;;-145.86;90.99
51585;BME280;37669;50.312;18.670;2022-12-18T01:15:06;85271.88;;;-145.86;91.16
51585;BME280;37669;50.312;18.670;2022-12-18T01:17:33;85243.91;;;-145.86;90.64
51585;BME280;37669;50.312;18.670;2022-12-18T01:20:01;85231.91;;;-145.86;90.76
51585;BME280;37669;50.312;18.670;2022-12-18T01:22:29;85243.91;;;-145.86;90.74
51585;BME280;37669;50.312;18.670;2022-12-18T01:24:59;85229.91;;;-145.86;90.82
51585;BME280;37669;50.312;18.670;2022-12-18T01:27:26;85235.91;;;-145.86;90.67
51585;BME280;37669;50.312;18.670;2022-12-18T01:29:53;85231.91;;;-145.86;90.90
51585;BME280;37669;50.312;18.670;2022-12-18T01:32:20;85225.91;;;-145.86;90.80
51585;BME280;37669;50.312;18.670;2022-12-18T01:34:48;85235.91;;;-145.86;90.74
51585;BME280;37669;50.312;18.670;2022-12-18T01:37:15;85175.97;;;-145.86;90.91
51585;BME280;37669;50.312;18.670;2022-12-18T01:39:43;85251.91;;;-145.86;90.56
51585;BME280;37669;50.312;18.670;2022-12-18T01:42:12;85245.91;;;-145.86;91.24
51585;BME280;37669;50.312;18.670;2022-12-18T01:45:06;85217.94;;;-145.86;91.03
51585;BME280;37669;50.312;18.670;2022-12-18T01:47:37;85243.91;;;-145.86;91.08
51585;BME280;37669;50.312;18.670;2022-12-18T01:50:09;85259.88;;;-145.86;90.74
51585;BME280;37669;50.312;18.670;2022-12-18T01:52:37;85293.88;;;-145.86;91.14
51585;BME280;37669;50.312;18.670;2022-12-18T01:55:11;85291.88;;;-145.86;90.80
51585;BME280;37669;50.312;18.670;2022-12-18T01:57:40;85237.91;;;-145.86;91.10
51585;BME280;37669;50.312;18.670;2022-12-18T02:00:10;85223.91;;;-145.86;91.19
51585;BME280;37669;50.312;18.670;2022-12-18T02:02:37;85283.88;;;-145.86;91.71
51585;BME280;37669;50.312;18.670;2022-12-18T02:05:06;85259.88;;;-145.86;91.45
51585;BME280;37669;50.312;18.670;2022-12-18T02:07:41;85291.88;;;-145.86;91.34
51585;BME280;37669;50.312;18.670;2022-12-18T02:10:16;85207.94;;;-145.86;91.34
51585;BME280;37669;50.312;18.670;2022-12-18T02:12:50;85279.88;;;-145.86;91.37
51585;BME280;37669;50.312;18.670;2022-12-18T02:15:25;85271.88;;;-145.86;91.49
51585;BME280;37669;50.312;18.670;2022-12-18T02:17:57;85293.88;;;-145.86;91.62
51585;BME280;37669;50.312;18.670;2022-12-18T02:20:33;85323.84;;;-145.86;91.65
51585;BME280;37669;50.312;18.670;2022-12-18T02:23:08;85289.88;;;-145.86;91.53
51585;BME280;37669;50.312;18.670;2022-12-18T02:26:01;85275.88;;;-145.86;91.11
51585;BME280;37669;50.312;18.670;2022-12-18T02:28:33;85275.88;;;-145.86;91.87
51585;BME280;37669;50.312;18.670;2022-12-18T06:05:59;85487.69;;;-145.86;92.93
51585;BME280;37669;50.312;18.670;2022-12-18T06:08:27;85485.69;;;-145.86;93.14
51585;BME280;37669;50.312;18.670;2022-12-18T06:10:54;85435.75;;;-145.86;93.17
51585;BME280;37669;50.312;18.670;2022-12-18T06:13:21;85499.69;;;-145.86;93.13
51585;BME280;37669;50.312;18.670;2022-12-18T06:15:48;85521.66;;;-145.86;93.16
51585;BME280;37669;50.312;18.670;2022-12-18T06:18:15;85507.69;;;-145.86;92.85
51585;BME280;37669;50.312;18.670;2022-12-18T06:20:42;85479.69;;;-145.86;93.13
51585;BME280;37669;50.312;18.670;2022-12-18T06:23:11;85507.69;;;-145.86;93.19
51585;BME280;37669;50.312;18.670;2022-12-18T06:25:38;85507.69;;;-145.86;93.21
51585;BME280;37669;50.312;18.670;2022-12-18T06:28:06;85367.78;;;-145.86;93.42
51585;BME280;37669;50.312;18.670;2022-12-18T06:30:33;85495.69;;;-145.86;93.06
51585;BME280;37669;50.312;18.670;2022-12-18T06:33:01;85491.69;;;-145.86;93.05
51585;BME280;37669;50.312;18.670;2022-12-18T06:35:28;85491.69;;;-145.86;92.98
51585;BME280;37669;50.312;18.670;2022-12-18T06:37:56;85501.69;;;-145.86;93.27
51585;BME280;37669;50.312;18.670;2022-12-18T06:40:24;85523.66;;;-145.86;92.91
51585;BME280;37669;50.312;18.670;2022-12-18T06:42:51;85507.69;;;-145.86;92.83
51585;BME280;37669;50.312;18.670;2022-12-18T06:45:18;85515.66;;;-145.86;93.18
51585;BME280;37669;50.312;18.670;2022-12-18T06:47:45;85511.69;;;-145.86;93.27
51585;BME280;37669;50.312;18.670;2022-12-18T06:50:13;85515.66;;;-145.86;93.03
51585;BME280;37669;50.312;18.670;2022-12-18T06:52:40;85503.69;;;-145.86;93.12
51585;BME280;37669;50.312;18.670;2022-12-18T06:55:10;85517.66;;;-145.86;93.24
51585;BME280;37669;50.312;18.670;2022-12-18T06:57:38;85521.66;;;-145.86;93.47
51585;BME280;37669;50.312;18.670;2022-12-18T07:00:07;85519.66;;;-145.86;93.11
51585;BME280;37669;50.312;18.670;2022-12-18T07:02:34;85511.69;;;-145.86;93.16
51585;BME280;37669;50.312;18.670;2022-12-18T07:05:01;85507.69;;;-145.86;92.88
51585;BME280;37669;50.312;18.670;2022-12-18T07:07:28;85509.69;;;-145.86;93.15
51585;BME280;37669;50.312;18.670;2022-12-18T07:09:55;85523.66;;;-145.86;93.06
51585;BME280;37669;50.312;18.670;2022-12-18T07:12:22;85483.69;;;-145.86;93.09
51585;BME280;37669;50.312;18.670;2022-12-18T07:14:51;85481.69;;;-145.86;93.27
51585;BME280;37669;50.312;18.670;2022-12-18T07:17:18;85483.69;;;-145.86;93.17
51585;BME280;37669;50.312;18.670;2022-12-18T07:19:45;85459.72;;;-145.86;93.22
51585;BME280;37669;50.312;18.670;2022-12-18T07:22:12;85467.72;;;-145.86;93.31
51585;BME280;37669;50.312;18.670;2022-12-18T07:24:39;85463.72;;;-145.86;93.17
51585;BME280;37669;50.312;18.670;2022-12-18T07:27:06;85403.75;;;-145.86;92.90
51585;BME280;37669;50.312;18.670;2022-12-18T07:29:33;85403.75;;;-145.86;92.92
51585;BME280;37669;50.312;18.670;2022-12-18T07:32:02;85375.78;;;-145.86;93.00
51585;BME280;37669;50.312;18.670;2022-12-18T07:34:29;85403.75;;;-145.86;92.67
51585;BME280;37669;50.312;18.670;2022-12-18T07:36:56;85375.78;;;-145.86;92.88
51585;BME280;37669;50.312;18.670;2022-12-18T07:39:23;85379.78;;;-145.86;92.83
51585;BME280;37669;50.312;18.670;2022-12-18T07:41:50;85367.78;;;-145.86;92.77
51585;BME280;37669;50.312;18.670;2022-12-18T07:44:31;85391.78;;;-145.86;92.64
51585;BME280;37669;50.312;18.670;2022-12-18T07:46:58;85315.84;;;-145.86;92.73
51585;BME280;37669;50.312;18.670;2022-12-18T07:49:27;85405.75;;;-145.86;92.71
51585;BME280;37669;50.312;18.670;2022-12-18T07:51:55;85411.75;;;-145.86;92.98
51585;BME280;37669;50.312;18.670;2022-12-18T07:54:22;85407.75;;;-145.86;92.69
51585;BME280;37669;50.312;18.670;2022-12-18T07:56:49;85365.78;;;-145.86;92.52
51585;BME280;37669;50.312;18.670;2022-12-18T07:59:17;85375.78;;;-145.86;92.42
51585;BME280;37669;50.312;18.670;2022-12-18T08:01:44;85375.78;;;-145.86;91.96
51585;BME280;37669;50.312;18.670;2022-12-18T08:04:11;85339.81;;;-145.86;91.87
51585;BME280;37669;50.312;18.670;2022-12-18T08:06:39;85301.84;;;-145.86;91.81
51585;BME280;37669;50.312;18.670;2022-12-18T08:09:06;85275.88;;;-145.86;91.88
51585;BME280;37669;50.312;18.670;2022-12-18T08:11:34;85257.88;;;-145.86;91.40
51585;BME280;37669;50.312;18.670;2022-12-18T08:14:01;85239.91;;;-145.86;91.33
51585;BME280;37669;50.312;18.670;2022-12-18T08:16:28;85287.88;;;-145.86;91.26
51585;BME280;37669;50.312;18.670;2022-12-18T08:18:55;85231.91;;;-145.86;90.95
51585;BME280;37669;50.312;18.670;2022-12-18T08:21:24;85215.94;;;-145.86;90.82
51585;BME280;37669;50.312;18.670;2022-12-18T08:23:55;85207.94;;;-145.86;90.40
51585;BME280;37669;50.312;18.670;2022-12-18T08:26:23;85155.97;;;-145.86;90.56
51585;BME280;37669;50.312;18.670;2022-12-18T08:28:51;85120.00;;;-145.86;88.96
51585;BME280;37669;50.312;18.670;2022-12-18T08:31:18;85068.06;;;-145.86;88.25
51585;BME280;37669;50.312;18.670;2022-12-18T08:33:48;85054.06;;;-145.86;88.33
51585;BME280;37669;50.312;18.670;2022-12-18T08:36:15;85016.13;;;-145.86;88.18
51585;BME280;37669;50.312;18.670;2022-12-18T08:38:42;85024.09;;;-145.86;88.31
51585;BME280;37669;50.312;18.670;2022-12-18T08:41:12;85020.09;;;-145.86;88.50
51585;BME280;37669;50.312;18.670;2022-12-18T08:43:40;85014.13;;;-145.86;88.18
51585;BME280;37669;50.312;18.670;2022-12-18T08:46:26;84988.13;;;-145.86;87.77
51585;BME280;37669;50.312;18.670;2022-12-18T08:48:54;84998.13;;;-145.86;87.87
51585;BME280;37669;50.312;18.670;2022-12-18T08:51:21;84936.19;;;-145.86;87.02
51585;BME280;37669;50.312;18.670;2022-12-18T08:53:49;84944.19;;;-145.86;86.53
51585;BME280;37669;50.312;18.670;2022-12-18T08:56:17;84940.19;;;-145.86;86.31
51585;BME280;37669;50.312;18.670;2022-12-18T08:58:44;84946.19;;;-145.86;86.59
51585;BME280;37669;50.312;18.670;2022-12-18T09:01:12;84952.19;;;-145.86;86.85
51585;BME280;37669;50.312;18.670;2022-12-18T09:03:40;84948.19;;;-145.86;86.83
51585;BME280;37669;50.312;18.670;2022-12-18T10:55:31;84680.44;;;-145.86;74.85
51585;BME280;37669;50.312;18.670;2022-12-18T10:58:16;84676.44;;;-145.86;74.38
51585;BME280;37669;50.312;18.670;2022-12-18T11:00:44;84670.47;;;-145.86;74.64
51585;BME280;37669;50.312;18.670;2022-12-18T11:03:29;84680.44;;;-145.86;74.74
51585;BME280;37669;50.312;18.670;2022-12-18T11:06:05;84632.50;;;-145.86;75.61
51585;BME280;37669;50.312;18.670;2022-12-18T11:08:33;84650.47;;;-145.86;75.34
51585;BME280;37669;50.312;18.670;2022-12-18T11:11:02;84664.47;;;-145.86;75.40
51585;BME280;37669;50.312;18.670;2022-12-18T11:13:31;84634.50;;;-145.86;74.29
51585;BME280;37669;50.312;18.670;2022-12-18T11:15:59;84660.47;;;-145.86;75.03
51585;BME280;37669;50.312;18.670;2022-12-18T11:18:28;84652.47;;;-145.86;75.06
51585;BME280;37669;50.312;18.670;2022-12-18T11:20:58;84660.47;;;-145.86;75.89
51585;BME280;37669;50.312;18.670;2022-12-18T11:23:27;84662.47;;;-145.86;75.51
51585;BME280;37669;50.312;18.670;2022-12-18T11:25:56;84616.50;;;-145.86;74.91
51585;BME280;37669;50.312;18.670;2022-12-18T11:28:44;84672.47;;;-145.86;75.47
51585;BME280;37669;50.312;18.670;2022-12-18T11:31:18;84644.47;;;-145.86;75.37
51585;BME280;37669;50.312;18.670;2022-12-18T11:33:49;84666.47;;;-145.86;74.33
51585;BME280;37669;50.312;18.670;2022-12-18T11:36:19;84660.47;;;-145.86;74.41
51585;BME280;37669;50.312;18.670;2022-12-18T11:38:49;84612.53;;;-145.86;73.66
51585;BME280;37669;50.312;18.670;2022-12-18T11:41:23;84784.34;;;-145.86;74.03
51585;BME280;37669;50.312;18.670;2022-12-18T11:44:15;84632.50;;;-145.86;74.98
51585;BME280;37669;50.312;18.670;2022-12-18T11:46:49;84618.50;;;-145.86;75.39
51585;BME280;37669;50.312;18.670;2022-12-18T11:49:22;84654.47;;;-145.86;75.05
51585;BME280;37669;50.312;18.670;2022-12-18T11:51:54;84616.50;;;-145.86;74.24
51585;BME280;37669;50.312;18.670;2022-12-18T11:54:23;84640.50;;;-145.86;74.96
51585;BME280;37669;50.312;18.670;2022-12-18T11:56:53;84650.47;;;-145.86;74.64
51585;BME280;37669;50.312;18.670;2022-12-18T11:59:32;84654.47;;;-145.86;75.04
51585;BME280;37669;50.312;18.670;2022-12-18T12:02:16;84644.47;;;-145.86;75.69
51585;BME280;37669;50.312;18.670;2022-12-18T12:05:01;84626.50;;;-145.86;74.96
51585;BME280;37669;50.312;18.670;2022-12-18T12:07:38;84606.53;;;-145.86;75.16
51585;BME280;37669;50.312;18.670;2022-12-18T12:10:24;84612.53;;;-145.86;74.38
51585;BME280;37669;50.312;18.670;2022-12-18T12:13:06;84624.50;;;-145.86;73.99
51585;BME280;37669;50.312;18.670;2022-12-18T12:15:44;84614.50;;;-145.86;74.10
51585;BME280;37669;50.312;18.670;2022-12-18T12:18:25;84612.53;;;-145.86;74.76
51585;BME280;37669;50.312;18.670;2022-12-18T12:21:00;84590.53;;;-145.86;75.31
51585;BME280;37669;50.312;18.670;2022-12-18T12:23:38;84620.50;;;-145.86;75.10
51585;BME280;37669;50.312;18.670;2022-12-18T12:26:12;84610.53;;;-145.86;75.09
51585;BME280;37669;50.312;18.670;2022-12-18T12:29:00;84636.50;;;-145.86;75.81
51585;BME280;37669;50.312;18.670;2022-12-18T12:31:41;84632.50;;;-145.86;76.23
51585;BME280;37669;50.312;18.670;2022-12-18T12:34:17;84656.47;;;-145.86;76.21
51585;BME280;37669;50.312;18.670;2022-12-18T12:37:00;84628.50;;;-145.86;75.96
51585;BME280;37669;50.312;18.670;2022-12-18T12:39:34;84644.47;;;-145.86;75.99
51585;BME280;37669;50.312;18.670;2022-12-18T12:42:03;84628.50;;;-145.86;75.39
51585;BME280;37669;50.312;18.670;2022-12-18T12:44:54;84604.53;;;-145.86;75.12
51585;BME280;37669;50.312;18.670;2022-12-18T12:47:26;84824.31;;;-145.86;74.52
51585;BME280;37669;50.312;18.670;2022-12-18T12:49:54;84640.50;;;-145.86;75.21
51585;BME280;37669;50.312;18.670;2022-12-18T12:52:28;84604.53;;;-145.86;74.85
51585;BME280;37669;50.312;18.670;2022-12-18T12:54:58;84624.50;;;-145.86;74.99
51585;BME280;37669;50.312;18.670;2022-12-18T12:57:33;84644.47;;;-145.86;75.04
51585;BME280;37669;50.312;18.670;2022-12-18T13:00:05;84624.50;;;-145.86;75.50
51585;BME280;37669;50.312;18.670;2022-12-18T13:02:42;84630.50;;;-145.86;75.10
51585;BME280;37669;50.312;18.670;2022-12-18T13:05:16;84622.50;;;-145.86;74.98
51585;BME280;37669;50.312;18.670;2022-12-18T13:07:50;84628.50;;;-145.86;74.76
51585;BME280;37669;50.312;18.670;2022-12-18T13:10:39;84588.53;;;-145.86;74.42
51585;BME280;37669;50.312;18.670;2022-12-18T13:13:09;84600.53;;;-145.86;74.08
51585;BME280;37669;50.312;18.670;2022-12-18T13:15:39;84584.53;;;-145.86;74.29
51585;BME280;37669;50.312;18.670;2022-12-18T13:18:20;84600.53;;;-145.86;74.75
51585;BME280;37669;50.312;18.670;2022-12-18T13:20:49;84628.50;;;-145.86;74.77
51585;BME280;37669;50.312;18.670;2022-12-18T13:23:31;84616.50;;;-145.86;74.80
51585;BME280;37669;50.312;18.670;2022-12-18T13:25:59;84670.47;;;-145.86;74.84
51585;BME280;37669;50.312;18.670;2022-12-18T13:28:51;84598.53;;;-145.86;75.07
51585;BME280;37669;50.312;18.670;2022-12-18T13:34:37;84624.50;;;-145.86;75.20
51585;BME280;37669;50.312;18.670;2022-12-18T13:37:41;84608.53;;;-145.86;74.75
51585;BME280;37669;50.312;18.670;2022-12-18T13:43:31;84604.53;;;-145.86;75.41
51585;BME280;37669;50.312;18.670;2022-12-18T13:46:05;84596.53;;;-145.86;75.75
51585;BME280;37669;50.312;18.670;2022-12-18T13:48:50;84608.53;;;-145.86;75.64
51585;BME280;37669;50.312;18.670;2022-12-18T13:51:19;84608.53;;;-145.86;75.63
51585;BME280;37669;50.312;18.670;2022-12-18T13:53:50;84600.53;;;-145.86;75.95
51585;BME280;37669;50.312;18.670;2022-12-18T13:56:21;84598.53;;;-145.86;76.15
51585;BME280;37669;50.312;18.670;2022-12-18T13:59:05;84616.50;;;-145.86;76.53
51585;BME280;37669;50.312;18.670;2022-12-18T14:01:36;84612.53;;;-145.86;76.79
51585;BME280;37669;50.312;18.670;2022-12-18T14:04:10;84572.56;;;-145.86;76.78
51585;BME280;37669;50.312;18.670;2022-12-18T14:06:39;84598.53;;;-145.86;77.05
51585;BME280;37669;50.312;18.670;2022-12-18T14:09:14;84546.59;;;-145.86;77.17
51585;BME280;37669;50.312;18.670;2022-12-18T14:11:46;84590.53;;;-145.86;77.52
51585;BME280;37669;50.312;18.670;2022-12-18T14:14:15;84596.53;;;-145.86;77.69
51585;BME280;37669;50.312;18.670;2022-12-18T14:16:42;84604.53;;;-145.86;78.07
51585;BME280;37669;50.312;18.670;2022-12-18T14:19:13;84608.53;;;-145.86;77.71
51585;BME280;37669;50.312;18.670;2022-12-18T14:21:46;84610.53;;;-145.86;78.09
51585;BME280;37669;50.312;18.670;2022-12-18T14:24:15;84598.53;;;-145.86;78.59
51585;BME280;37669;50.312;18.670;2022-12-18T14:26:43;84788.34;;;-145.86;78.38
51585;BME280;37669;50.312;18.670;2022-12-18T16:54:34;84468.66;;;-145.86;85.12
51585;BME280;37669;50.312;18.670;2022-12-18T16:57:02;84458.69;;;-145.86;84.84
51585;BME280;37669;50.312;18.670;2022-12-18T16:59:29;84452.69;;;-145.86;84.87
51585;BME280;37669;50.312;18.670;2022-12-18T17:01:59;84456.69;;;-145.86;85.20
51585;BME280;37669;50.312;18.670;2022-12-18T17:04:29;84470.66;;;-145.86;84.48
51585;BME280;37669;50.312;18.670;2022-12-18T17:06:59;84462.69;;;-145.86;85.23
51585;BME280;37669;50.312;18.670;2022-12-18T17:09:26;84456.69;;;-145.86;84.72
51585;BME280;37669;50.312;18.670;2022-12-18T17:11:55;84478.66;;;-145.86;85.21
51585;BME280;37669;50.312;18.670;2022-12-18T17:14:23;84468.66;;;-145.86;85.86
51585;BME280;37669;50.312;18.670;2022-12-18T17:16:51;84496.63;;;-145.86;86.06
51585;BME280;37669;50.312;18.670;2022-12-18T17:19:18;84500.63;;;-145.86;86.17
51585;BME280;37669;50.312;18.670;2022-12-18T17:21:48;84482.66;;;-145.86;86.57
51585;BME280;37669;50.312;18.670;2022-12-18T17:24:16;84512.63;;;-145.86;86.49
51585;BME280;37669;50.312;18.670;2022-12-18T17:26:43;84526.59;;;-145.86;86.29
51585;BME280;37669;50.312;18.670;2022-12-18T17:29:14;84516.63;;;-145.86;86.48
51585;BME280;37669;50.312;18.670;2022-12-18T17:31:42;84484.66;;;-145.86;85.92
51585;BME280;37669;50.312;18.670;2022-12-18T17:34:10;84524.59;;;-145.86;86.03
51585;BME280;37669;50.312;18.670;2022-12-18T17:36:37;84436.72;;;-145.86;86.06
51585;BME280;37669;50.312;18.670;2022-12-18T17:39:06;84484.66;;;-145.86;86.09
51585;BME280;37669;50.312;18.670;2022-12-18T17:41:33;84464.69;;;-145.86;86.46
51585;BME280;37669;50.312;18.670;2022-12-18T17:44:03;84492.66;;;-145.86;85.69
51585;BME280;37669;50.312;18.670;2022-12-18T17:46:32;84450.69;;;-145.86;86.40
51585;BME280;37669;50.312;18.670;2022-12-18T17:49:01;84472.66;;;-145.86;85.77
51585;BME280;37669;50.312;18.670;2022-12-18T17:51:29;84460.69;;;-145.86;86.25
51585;BME280;37669;50.312;18.670;2022-12-18T17:53:56;84490.66;;;-145.86;86.44
51585;BME280;37669;50.312;18.670;2022-12-18T17:56:24;84464.69;;;-145.86;86.16
51585;BME280;37669;50.312;18.670;2022-12-18T17:58:51;84484.66;;;-145.86;86.30
51585;BME280;37669;50.312;18.670;2022-12-18T18:01:21;84470.66;;;-145.86;86.07
51585;BME280;37669;50.312;18.670;2022-12-18T18:03:50;84558.56;;;-145.86;85.42
51585;BME280;37669;50.312;18.670;2022-12-18T18:06:18;84454.69;;;-145.86;85.87
51585;BME280;37669;50.312;18.670;2022-12-18T18:08:45;84424.72;;;-145.86;85.39
51585;BME280;37669;50.312;18.670;2022-12-18T18:11:14;84424.72;;;-145.86;85.41
51585;BME280;37669;50.312;18.670;2022-12-18T18:13:59;84416.72;;;-145.86;85.80
51585;BME280;37669;50.312;18.670;2022-12-18T18:16:27;84436.72;;;-145.86;85.94
51585;BME280;37669;50.312;18.670;2022-12-18T18:18:57;84436.72;;;-145.86;85.98
51585;BME280;37669;50.312;18.670;2022-12-18T18:21:25;84486.66;;;-145.86;86.11
51585;BME280;37669;50.312;18.670;2022-12-18T18:23:52;84488.66;;;-145.86;86.46
51585;BME280;37669;50.312;18.670;2022-12-18T18:26:20;84504.63;;;-145.86;87.60
51585;BME280;37669;50.312;18.670;2022-12-18T18:28:47;84542.59;;;-145.86;87.87
51585;BME280;37669;50.312;18.670;2022-12-18T18:31:15;84566.56;;;-145.86;88.65
51585;BME280;37669;50.312;18.670;2022-12-18T18:33:42;84620.50;;;-145.86;88.59
51585;BME280;37669;50.312;18.670;2022-12-18T18:36:10;84650.47;;;-145.86;89.10
51585;BME280;37669;50.312;18.670;2022-12-18T18:38:38;84682.44;;;-145.86;89.67
51585;BME280;37669;50.312;18.670;2022-12-18T18:41:05;84742.38;;;-145.86;90.35
51585;BME280;37669;50.312;18.670;2022-12-18T18:43:33;84798.31;;;-145.86;91.03
51585;BME280;37669;50.312;18.670;2022-12-18T18:46:02;85060.06;;;-145.86;90.91
51585;BME280;37669;50.312;18.670;2022-12-18T18:48:31;84890.22;;;-145.86;91.84
51585;BME280;37669;50.312;18.670;2022-12-18T18:51:02;84954.19;;;-145.86;92.25
51585;BME280;37669;50.312;18.670;2022-12-18T18:53:35;84988.13;;;-145.86;92.13
51585;BME280;37669;50.312;18.670;2022-12-18T18:56:02;84986.16;;;-145.86;92.28
51585;BME280;37669;50.312;18.670;2022-12-18T18:58:29;84994.13;;;-145.86;92.24
51585;BME280;37669;50.312;18.670;2022-12-18T19:00:57;84966.16;;;-145.86;91.79
51585;BME280;37669;50.312;18.670;2022-12-18T19:03:25;85000.13;;;-145.86;91.75
51585;BME280;37669;50.312;18.670;2022-12-18T19:05:53;84968.16;;;-145.86;91.11
51585;BME280;37669;50.312;18.670;2022-12-18T19:08:22;84992.13;;;-145.86;91.37
51585;BME280;37669;50.312;18.670;2022-12-18T19:10:51;84990.13;;;-145.86;91.39
51585;BME280;37669;50.312;18.670;2022-12-18T19:13:19;85002.13;;;-145.86;91.16
51585;BME280;37669;50.312;18.670;2022-12-18T19:15:45;84948.19;;;-145.86;91.12
51585;BME280;37669;50.312;18.670;2022-12-18T19:18:13;84990.13;;;-145.86;91.25
51585;BME280;37669;50.312;18.670;2022-12-18T19:20:40;84968.16;;;-145.86;91.71
51585;BME280;37669;50.312;18.670;2022-12-18T19:23:07;84964.16;;;-145.86;91.49
51585;BME280;37669;50.312;18.670;2022-12-18T19:25:36;84992.13;;;-145.86;92.07
51585;BME280;37669;50.312;18.670;2022-12-18T19:28:06;85022.09;;;-145.86;91.96
51585;BME280;37669;50.312;18.670;2022-12-18T19:30:37;85044.09;;;-145.86;91.99
51585;BME280;37669;50.312;18.670;2022-12-18T19:33:10;85042.09;;;-145.86;91.77
51585;BME280;37669;50.312;18.670;2022-12-18T19:35:43;85046.09;;;-145.86;91.24
51585;BME280;37669;50.312;18.670;2022-12-18T19:38:18;85068.06;;;-145.86;91.78
51585;BME280;37669;50.312;18.670;2022-12-18T19:40:51;85016.13;;;-145.86;91.71
51585;BME280;37669;50.312;18.670;2022-12-18T19:43:19;84996.13;;;-145.86;91.47
51585;BME280;37669;50.312;18.670;2022-12-18T19:45:53;85024.09;;;-145.86;91.54
51585;BME280;37669;50.312;18.670;2022-12-18T19:48:20;84980.16;;;-145.86;91.39
51585;BME280;37669;50.312;18.670;2022-12-18T19:50:47;85012.13;;;-145.86;90.77
51585;BME280;37669;50.312;18.670;2022-12-18T19:53:14;85006.13;;;-145.86;91.00
51585;BME280;37669;50.312;18.670;2022-12-18T19:55:41;84848.28;;;-145.86;91.34
51585;BME280;37669;50.312;18.670;2022-12-18T19:58:09;84990.13;;;-145.86;91.26
51585;BME280;37669;50.312;18.670;2022-12-18T20:00:37;85000.13;;;-145.86;91.55
51585;BME280;37669;50.312;18.670;2022-12-18T20:03:04;84992.13;;;-145.86;90.54
51585;BME280;37669;50.312;18.670;2022-12-18T20:05:31;84980.16;;;-145.86;91.13
51585;BME280;37669;50.312;18.670;2022-12-18T20:07:58;84992.13;;;-145.86;90.56
51585;BME280;37669;50.312;18.670;2022-12-18T20:10:26;84978.16;;;-145.86;91.11
51585;BME280;37669;50.312;18.670;2022-12-18T20:12:53;84972.16;;;-145.86;90.69
